createdAt,value
2022-09-02T00:01:25.804Z,2.67
2022-09-02T00:03:56.322Z,3.13
2022-09-02T00:06:23.716Z,1.60
2022-09-02T00:08:50.320Z,1.67
2022-09-02T00:11:24.322Z,1.92
2022-09-02T00:13:51.686Z,1.10
2022-09-02T00:16:19.036Z,0.80
2022-09-02T00:18:48.293Z,1.10
2022-09-02T00:21:15.689Z,1.48
2022-09-02T00:23:43.873Z,0.80
2022-09-02T00:26:11.196Z,1.05
2022-09-02T00:28:38.297Z,1.00
2022-09-02T00:31:05.494Z,0.88
2022-09-02T00:33:32.168Z,1.17
2022-09-02T00:36:01.050Z,0.90
2022-09-02T00:38:28.800Z,0.90
2022-09-02T00:40:55.600Z,0.82
2022-09-02T00:43:25.649Z,1.33
2022-09-02T00:45:53.655Z,0.90
2022-09-02T00:48:20.366Z,0.57
2022-09-02T00:50:47.103Z,1.05
2022-09-02T00:53:14.423Z,0.90
2022-09-02T00:55:46.332Z,0.90
2022-09-02T00:58:17.769Z,0.98
2022-09-02T01:00:46.537Z,0.73
2022-09-02T01:03:18.097Z,0.70
2022-09-02T01:05:49.715Z,0.93
2022-09-02T01:08:21.266Z,0.60
2022-09-02T01:10:49.698Z,0.88
2022-09-02T01:13:20.267Z,0.80
2022-09-02T01:15:51.970Z,0.60
2022-09-02T01:18:23.155Z,0.90
2022-09-02T01:20:49.768Z,1.23
2022-09-02T01:23:17.377Z,0.98
2022-09-02T01:25:45.492Z,1.15
2022-09-02T01:28:16.154Z,0.90
2022-09-02T01:30:50.433Z,1.20
2022-09-02T01:33:19.370Z,1.27
2022-09-02T01:35:49.831Z,1.38
2022-09-02T01:38:16.876Z,1.30
2022-09-02T01:40:43.707Z,1.17
2022-09-02T01:43:13.477Z,1.20
2022-09-02T01:45:43.205Z,1.13
2022-09-02T01:48:13.498Z,1.27
2022-09-02T01:50:48.939Z,1.10
2022-09-02T01:53:15.999Z,1.42
2022-09-02T01:55:42.851Z,1.27
2022-09-02T01:58:10.143Z,1.30
2022-09-02T02:00:36.897Z,1.30
2022-09-02T02:03:03.886Z,1.13
2022-09-02T02:05:31.995Z,1.40
2022-09-02T02:07:58.883Z,1.20
2022-09-02T02:10:25.817Z,1.30
2022-09-02T02:12:52.506Z,1.25
2022-09-02T02:17:49.323Z,1.10
2022-09-02T02:20:17.321Z,1.00
2022-09-02T02:22:44.661Z,1.40
2022-09-02T02:25:12.305Z,1.55
2022-09-02T02:27:43.730Z,1.20
2022-09-02T02:30:13.142Z,1.50
2022-09-02T02:32:40.263Z,1.23
2022-09-02T02:35:07.567Z,1.42
2022-09-02T02:37:35.011Z,0.82
2022-09-02T02:40:01.788Z,1.30
2022-09-02T02:42:29.595Z,1.60
2022-09-02T02:44:56.358Z,1.17
2022-09-02T02:47:23.010Z,1.52
2022-09-02T02:49:49.610Z,1.30
2022-09-02T02:52:16.727Z,1.33
2022-09-02T02:54:43.281Z,1.58
2022-09-02T02:57:11.036Z,1.50
2022-09-02T02:59:38.406Z,1.52
2022-09-02T03:02:06.539Z,1.33
2022-09-02T03:04:34.320Z,1.27
2022-09-02T03:07:01.116Z,1.30
2022-09-02T03:09:29.064Z,1.73
2022-09-02T03:11:55.862Z,1.60
2022-09-02T03:14:22.956Z,1.75
2022-09-02T03:16:49.586Z,1.70
2022-09-02T03:19:17.225Z,1.88
2022-09-02T03:21:43.920Z,1.95
2022-09-02T03:24:12.381Z,2.17
2022-09-02T03:26:42.018Z,1.70
2022-09-02T03:29:10.738Z,2.17
2022-09-02T03:31:38.102Z,1.75
2022-09-02T03:34:07.460Z,2.75
2022-09-02T03:36:38.918Z,2.15
2022-09-02T03:39:09.999Z,2.17
2022-09-02T03:41:42.877Z,2.40
2022-09-02T03:44:11.350Z,2.15
2022-09-02T03:46:39.215Z,2.50
2022-09-02T03:49:06.461Z,2.63
2022-09-02T03:51:33.377Z,2.47
2022-09-02T03:54:00.506Z,2.97
2022-09-02T03:56:27.112Z,2.63
2022-09-02T03:58:55.828Z,2.88
2022-09-02T04:01:30.813Z,3.13
2022-09-02T04:04:05.168Z,2.65
2022-09-02T04:06:33.311Z,2.55
2022-09-02T04:09:02.017Z,2.92
2022-09-02T04:11:29.154Z,2.88
2022-09-02T04:13:55.734Z,2.65
2022-09-02T04:16:29.822Z,2.20
2022-09-02T04:19:02.084Z,2.67
2022-09-02T04:21:33.504Z,2.45
2022-09-02T04:24:00.971Z,2.15
2022-09-02T04:26:28.959Z,2.40
2022-09-02T04:28:57.677Z,2.28
2022-09-02T04:31:26.533Z,2.60
2022-09-02T04:33:54.069Z,2.78
2022-09-02T04:36:22.515Z,2.80
2022-09-02T04:38:54.124Z,2.60
2022-09-02T04:41:28.008Z,3.15
2022-09-02T04:43:59.604Z,2.33
2022-09-02T04:46:34.015Z,2.30
2022-09-02T04:49:04.827Z,2.47
2022-09-02T04:51:32.936Z,3.08
2022-09-02T04:54:01.649Z,2.58
2022-09-02T04:56:32.165Z,2.50
2022-09-02T04:59:00.895Z,2.70
2022-09-02T05:01:32.581Z,2.63
2022-09-02T05:04:09.626Z,3.17
2022-09-02T05:06:44.091Z,2.60
2022-09-02T05:09:15.528Z,3.00
2022-09-02T05:11:42.604Z,2.65
2022-09-02T05:14:09.734Z,1.70
2022-09-02T05:16:40.694Z,1.35
2022-09-02T05:21:48.146Z,1.35
2022-09-02T05:24:26.481Z,2.05
2022-09-02T05:26:54.970Z,2.08
2022-09-02T05:29:23.698Z,1.90
2022-09-02T05:31:51.030Z,2.20
2022-09-02T05:34:18.012Z,2.20
2022-09-02T05:36:45.331Z,2.38
2022-09-02T05:39:12.129Z,2.10
2022-09-02T05:41:39.171Z,2.50
2022-09-02T05:44:08.307Z,2.05
2022-09-02T05:46:35.942Z,1.95
2022-09-02T05:49:06.481Z,1.85
2022-09-02T05:52:00.492Z,2.08
2022-09-02T05:54:37.964Z,2.42
2022-09-02T05:57:12.036Z,2.97
2022-09-02T05:59:44.121Z,1.90
2022-09-02T06:02:17.406Z,2.25
2022-09-02T06:04:47.187Z,2.25
2022-09-02T06:07:16.861Z,1.80
2022-09-02T06:09:46.065Z,1.70
2022-09-02T06:12:15.199Z,1.30
2022-09-02T06:14:42.899Z,1.60
2022-09-02T06:17:10.491Z,1.70
2022-09-02T06:19:43.387Z,1.58
2022-09-02T06:22:11.587Z,2.00
2022-09-02T06:24:39.328Z,1.80
2022-09-02T06:27:10.739Z,1.85
2022-09-02T06:29:40.283Z,2.08
2022-09-02T06:32:09.207Z,1.63
2022-09-02T06:34:36.747Z,2.58
2022-09-02T06:37:03.398Z,1.98
2022-09-02T06:39:32.103Z,2.05
2022-09-02T06:41:59.411Z,1.90
2022-09-02T06:44:29.222Z,1.92
2022-09-02T06:46:59.941Z,1.40
2022-09-02T06:49:28.572Z,1.60
2022-09-02T06:51:57.705Z,1.63
2022-09-02T06:54:29.764Z,1.75
2022-09-02T06:57:06.628Z,1.55
2022-09-02T06:59:36.511Z,2.13
2022-09-02T07:02:03.996Z,1.90
2022-09-02T07:04:53.095Z,2.47
2022-09-02T07:07:22.828Z,2.10
2022-09-02T07:09:53.768Z,2.40
2022-09-02T07:12:20.554Z,1.85
2022-09-02T07:14:53.272Z,1.90
2022-09-02T07:17:39.819Z,2.00
2022-09-02T07:20:13.320Z,1.75
2022-09-02T07:25:24.511Z,1.70
2022-09-02T07:27:51.597Z,1.92
2022-09-02T07:30:19.119Z,1.70
2022-09-02T07:32:48.337Z,1.73
2022-09-02T07:35:16.424Z,1.95
2022-09-02T07:37:44.789Z,1.90
2022-09-02T07:40:13.628Z,1.80
2022-09-02T07:42:40.580Z,1.77
2022-09-02T07:45:09.069Z,1.88
2022-09-02T07:47:38.301Z,1.45
2022-09-02T07:50:22.170Z,1.50
2022-09-02T07:52:58.134Z,1.65
2022-09-02T07:55:27.165Z,1.55
2022-09-02T07:57:55.335Z,1.55
2022-09-02T08:00:27.364Z,1.55
2022-09-02T08:02:56.947Z,1.55
2022-09-02T08:05:29.026Z,1.50
2022-09-02T08:07:55.724Z,1.70
2022-09-02T08:10:24.735Z,1.33
2022-09-02T08:12:51.594Z,1.40
2022-09-02T08:15:20.131Z,1.63
2022-09-02T08:17:48.674Z,1.30
2022-09-02T08:20:17.526Z,1.30
2022-09-02T08:22:47.954Z,1.70
2022-09-02T08:25:21.237Z,1.75
2022-09-02T08:27:47.830Z,1.70
2022-09-02T08:30:14.567Z,1.98
2022-09-02T08:32:41.490Z,1.70
2022-09-02T08:35:09.952Z,1.50
2022-09-02T08:37:38.085Z,1.58
2022-09-02T08:40:11.161Z,1.63
2022-09-02T08:42:52.583Z,1.65
2022-09-02T08:45:37.224Z,1.50
2022-09-02T08:48:11.358Z,1.70
2022-09-02T08:50:40.189Z,1.70
2022-09-02T08:53:15.983Z,1.52
2022-09-02T08:55:55.479Z,1.42
2022-09-02T08:58:27.875Z,1.60
2022-09-02T09:01:07.328Z,1.40
2022-09-02T09:03:43.121Z,1.20
2022-09-02T09:06:20.057Z,1.42
2022-09-02T09:09:10.098Z,1.58
2022-09-02T09:11:52.150Z,1.17
2022-09-02T09:14:33.437Z,1.40
2022-09-02T09:17:08.486Z,1.38
2022-09-02T09:19:54.029Z,1.35
2022-09-02T09:22:32.082Z,1.38
2022-09-02T09:24:59.498Z,1.70
2022-09-02T09:27:26.102Z,1.58
2022-09-02T09:29:53.240Z,1.38
2022-09-02T09:32:24.052Z,1.70
2022-09-02T09:34:54.078Z,1.20
2022-09-02T09:37:37.432Z,1.35
2022-09-02T09:40:20.705Z,1.20
2022-09-02T09:42:56.835Z,1.38
2022-09-02T09:45:32.387Z,1.13
2022-09-02T09:48:30.130Z,1.25
2022-09-02T09:50:56.722Z,1.80
2022-09-02T09:53:32.258Z,1.40
2022-09-02T09:56:01.633Z,1.52
2022-09-02T09:58:44.033Z,1.58
2022-09-02T10:01:18.185Z,1.38
2022-09-02T10:03:52.820Z,1.35
2022-09-02T10:06:30.868Z,1.73
2022-09-02T10:09:14.298Z,1.70
2022-09-02T10:11:55.374Z,1.48
2022-09-02T10:14:23.065Z,1.65
2022-09-02T10:17:04.241Z,1.38
2022-09-02T10:19:44.954Z,1.90
2022-09-02T10:22:40.044Z,1.88
2022-09-02T10:25:34.490Z,1.60
2022-09-02T10:28:07.592Z,1.63
2022-09-02T10:31:16.187Z,1.70
2022-09-02T10:33:45.620Z,1.50
2022-09-02T10:36:20.909Z,1.45
2022-09-02T10:38:50.823Z,1.75
2022-09-02T10:44:14.198Z,1.35
2022-09-02T10:47:08.233Z,1.42
2022-09-02T10:49:47.049Z,1.83
2022-09-02T10:52:27.700Z,1.60
2022-09-02T10:55:13.970Z,1.73
2022-09-02T10:58:12.895Z,1.60
2022-09-02T11:00:45.436Z,1.40
2022-09-02T11:03:24.281Z,1.90
2022-09-02T11:05:59.373Z,1.83
2022-09-02T11:08:30.914Z,1.85
2022-09-02T11:11:34.751Z,1.60
2022-09-02T11:14:20.981Z,1.50
2022-09-02T11:16:58.372Z,1.30
2022-09-02T11:19:39.522Z,1.40
2022-09-02T11:22:14.823Z,1.52
2022-09-02T11:27:42.069Z,1.45
2022-09-02T11:32:59.691Z,1.17
2022-09-02T11:35:31.464Z,1.20
2022-09-02T11:38:14.963Z,1.65
2022-09-02T11:44:01.641Z,1.60
2022-09-02T11:46:46.790Z,1.50
2022-09-02T11:52:06.246Z,2.80
2022-09-02T11:54:45.827Z,1.60
2022-09-02T11:57:22.644Z,1.40
2022-09-02T11:59:52.441Z,1.50
2022-09-02T12:02:31.567Z,1.40
2022-09-02T12:05:30.008Z,1.27
2022-09-02T12:07:59.687Z,1.13
2022-09-02T12:10:45.319Z,1.40
2022-09-02T12:13:34.009Z,1.60
2022-09-02T12:16:12.823Z,1.42
2022-09-02T12:18:43.261Z,1.73
2022-09-02T12:21:18.295Z,1.38
2022-09-02T12:23:53.087Z,1.40
2022-09-02T12:26:25.881Z,1.10
2022-09-02T12:28:53.832Z,1.35
2022-09-02T12:31:22.517Z,1.52
2022-09-02T12:33:51.608Z,1.35
2022-09-02T12:36:36.463Z,1.55
2022-09-02T12:39:27.799Z,1.80
2022-09-02T12:41:57.660Z,1.27
2022-09-02T12:44:45.527Z,1.40
2022-09-02T12:47:33.165Z,1.20
2022-09-02T12:50:04.570Z,1.10
2022-09-02T12:52:34.603Z,1.77
2022-09-02T12:55:17.818Z,1.20
2022-09-02T12:57:47.709Z,1.20
2022-09-02T13:00:35.363Z,1.30
2022-09-02T13:03:26.349Z,1.60
2022-09-02T13:06:01.058Z,1.17
2022-09-02T13:08:30.521Z,1.20
2022-09-02T13:11:35.783Z,1.40
2022-09-02T13:14:17.635Z,1.50
2022-09-02T13:16:44.163Z,1.25
2022-09-02T13:19:13.426Z,1.20
2022-09-02T13:22:21.893Z,1.70
2022-09-02T13:24:51.093Z,1.70
2022-09-02T13:27:40.146Z,1.42
2022-09-02T13:30:44.522Z,1.50
2022-09-02T13:33:12.283Z,1.60
2022-09-02T13:35:40.807Z,1.40
2022-09-02T13:38:16.358Z,1.65
2022-09-02T13:40:46.239Z,1.60
2022-09-02T13:43:13.668Z,1.40
2022-09-02T13:45:40.716Z,1.63
2022-09-02T13:48:10.334Z,1.60
2022-09-02T13:50:41.969Z,1.77
2022-09-02T13:53:45.714Z,1.90
2022-09-02T13:56:02.152Z,1.63
2022-09-02T13:58:28.609Z,1.33
2022-09-02T14:01:01.630Z,1.50
2022-09-02T14:03:32.819Z,1.77
2022-09-02T14:06:01.229Z,1.10
2022-09-02T14:08:30.648Z,2.15
2022-09-02T14:10:58.409Z,1.50
2022-09-02T14:13:25.286Z,1.40
2022-09-02T14:15:51.940Z,1.50
2022-09-02T14:18:18.840Z,1.70
2022-09-02T14:21:19.019Z,1.48
2022-09-02T14:23:52.239Z,1.50
2022-09-02T14:26:41.276Z,1.35
2022-09-02T14:29:11.613Z,1.52
2022-09-02T14:31:38.328Z,1.55
2022-09-02T14:34:24.826Z,1.30
2022-09-02T14:36:51.500Z,1.40
2022-09-02T14:39:19.031Z,1.30
2022-09-02T14:41:48.866Z,1.58
2022-09-02T14:44:17.872Z,1.40
2022-09-02T14:46:53.220Z,1.38
2022-09-02T14:49:36.353Z,1.58
2022-09-02T14:52:25.351Z,1.52
2022-09-02T14:54:53.918Z,1.45
2022-09-02T14:57:31.767Z,1.30
2022-09-02T15:00:18.628Z,1.33
2022-09-02T15:02:48.873Z,1.20
2022-09-02T15:05:16.511Z,1.10
2022-09-02T15:07:43.540Z,1.48
2022-09-02T15:10:10.472Z,1.30
2022-09-02T15:12:49.763Z,1.20
2022-09-02T15:15:17.145Z,1.33
2022-09-02T15:17:43.954Z,1.33
2022-09-02T15:20:11.278Z,1.42
2022-09-02T15:22:38.698Z,1.95
2022-09-02T15:25:09.100Z,1.15
2022-09-02T15:27:35.951Z,1.40
2022-09-02T15:30:03.414Z,1.15
2022-09-02T15:32:30.882Z,1.30
2022-09-02T15:34:57.829Z,1.50
2022-09-02T15:37:25.065Z,1.30
2022-09-02T15:39:51.750Z,1.33
2022-09-02T15:42:18.651Z,1.65
2022-09-02T15:44:46.275Z,1.20
2022-09-02T15:47:12.972Z,1.38
2022-09-02T15:49:39.572Z,2.35
2022-09-02T15:52:06.983Z,2.22
2022-09-02T15:54:33.567Z,1.92
2022-09-02T15:57:00.185Z,1.20
2022-09-02T15:59:28.102Z,1.60
2022-09-02T16:01:56.628Z,1.30
2022-09-02T16:04:23.481Z,2.58
2022-09-02T16:06:52.500Z,1.40
2022-09-02T16:09:19.719Z,1.40
2022-09-02T16:11:49.780Z,1.45
2022-09-02T16:14:20.702Z,1.35
2022-09-02T16:16:50.744Z,1.40
2022-09-02T16:19:22.288Z,1.30
2022-09-02T16:21:50.554Z,1.60
2022-09-02T16:24:22.813Z,1.23
2022-09-02T16:26:50.860Z,1.75
2022-09-02T16:29:17.944Z,1.60
2022-09-02T16:32:01.752Z,1.30
2022-09-02T16:34:33.545Z,1.48
2022-09-02T16:37:00.718Z,1.65
2022-09-02T16:39:27.377Z,1.42
2022-09-02T16:41:54.483Z,1.50
2022-09-02T16:44:23.411Z,1.40
2022-09-02T16:46:51.763Z,1.52
2022-09-02T16:49:20.379Z,2.03
2022-09-02T16:51:48.713Z,1.50
2022-09-02T16:54:17.874Z,1.30
2022-09-02T16:56:52.832Z,1.48
2022-09-02T16:59:19.350Z,1.40
2022-09-02T17:01:46.497Z,1.10
2022-09-02T17:04:13.118Z,1.20
2022-09-02T17:06:42.276Z,1.38
2022-09-02T17:09:09.629Z,1.58
2022-09-02T17:11:41.249Z,1.40
2022-09-02T17:14:12.326Z,1.30
2022-09-02T17:16:47.597Z,1.40
2022-09-02T17:19:20.741Z,1.20
2022-09-02T17:21:50.896Z,1.30
2022-09-02T17:24:18.872Z,1.40
2022-09-02T17:26:50.491Z,1.50
2022-09-02T17:29:46.861Z,1.40
2022-09-02T17:32:06.547Z,1.45
2022-09-02T17:34:33.751Z,1.70
2022-09-02T17:37:00.524Z,1.70
2022-09-02T17:39:27.182Z,1.70
2022-09-02T17:41:59.577Z,1.30
2022-09-02T17:44:27.651Z,1.30
2022-09-02T17:46:57.913Z,1.42
2022-09-02T17:49:24.658Z,1.25
2022-09-02T17:51:51.466Z,1.42
2022-09-02T17:54:19.205Z,1.55
2022-09-02T17:57:07.583Z,1.40
2022-09-02T17:59:59.219Z,1.85
2022-09-02T18:02:47.951Z,2.05
2022-09-02T18:05:29.110Z,1.60
2022-09-02T18:08:02.731Z,1.70
2022-09-02T18:10:38.873Z,1.95
2022-09-02T18:13:13.802Z,1.65
2022-09-02T18:16:06.406Z,1.63
2022-09-02T18:18:36.811Z,1.63
2022-09-02T18:21:19.571Z,1.73
2022-09-02T18:23:52.070Z,1.70
2022-09-02T18:26:36.570Z,1.55
2022-09-02T18:29:27.738Z,1.30
2022-09-02T18:32:29.029Z,1.45
2022-09-02T18:35:20.814Z,1.60
2022-09-02T18:38:13.786Z,1.55
2022-09-02T18:41:02.998Z,1.40
2022-09-02T18:43:38.702Z,1.85
2022-09-02T18:46:06.260Z,1.98
2022-09-02T18:48:36.088Z,1.95
2022-09-02T18:51:11.540Z,2.53
2022-09-02T18:53:44.972Z,1.65
2022-09-02T18:56:13.322Z,2.08
2022-09-02T18:58:46.506Z,2.75
2022-09-02T19:01:30.890Z,2.10
2022-09-02T19:04:00.396Z,2.25
2022-09-02T19:06:34.386Z,1.85
2022-09-02T19:09:05.196Z,1.60
2022-09-02T19:11:34.129Z,2.03
2022-09-02T19:14:28.360Z,1.95
2022-09-02T19:16:58.096Z,2.05
2022-09-02T19:19:27.467Z,2.22
2022-09-02T19:21:59.286Z,2.30
2022-09-02T19:24:33.404Z,2.50
2022-09-02T19:27:10.099Z,2.75
2022-09-02T19:29:41.497Z,1.80
2022-09-02T19:32:08.284Z,2.05
2022-09-02T19:34:38.719Z,2.53
2022-09-02T19:37:05.874Z,2.47
2022-09-02T19:39:33.584Z,2.42
2022-09-02T19:42:03.300Z,2.03
2022-09-02T19:44:29.911Z,2.20
2022-09-02T19:47:49.862Z,1.67
2022-09-02T19:49:44.019Z,1.70
2022-09-02T19:52:11.522Z,2.08
2022-09-02T19:54:38.799Z,1.85
2022-09-02T19:57:05.481Z,1.80
2022-09-02T19:59:33.074Z,1.90
2022-09-02T20:01:59.674Z,2.20
2022-09-02T20:04:27.863Z,1.67
2022-09-02T20:06:58.715Z,1.20
2022-09-02T20:09:25.708Z,1.90
2022-09-02T20:11:56.606Z,1.50
2022-09-02T20:14:23.569Z,1.67
2022-09-02T20:16:57.235Z,1.35
2022-09-02T20:19:23.876Z,2.10
2022-09-02T20:21:53.254Z,1.83
2022-09-02T20:24:31.641Z,1.92
2022-09-02T20:27:05.273Z,1.90
2022-09-02T20:30:13.506Z,1.77
2022-09-02T20:32:55.275Z,1.77
2022-09-02T20:35:54.933Z,1.73
2022-09-02T20:38:26.405Z,1.58
2022-09-02T20:41:08.476Z,1.90
2022-09-02T20:43:52.669Z,1.95
2022-09-02T20:46:40.310Z,2.50
2022-09-02T20:49:21.980Z,2.45
2022-09-02T20:51:56.205Z,1.98
2022-09-02T20:54:41.802Z,1.80
2022-09-02T20:57:18.175Z,2.10
2022-09-02T21:00:02.221Z,2.78
2022-09-02T21:02:33.444Z,3.03
2022-09-02T21:05:06.053Z,2.15
2022-09-02T21:07:41.239Z,2.13
2022-09-02T21:10:16.762Z,1.88
2022-09-02T21:12:54.307Z,2.25
2022-09-02T21:15:23.836Z,2.08
2022-09-02T21:18:28.702Z,1.80
2022-09-02T21:21:13.170Z,1.70
2022-09-02T21:23:51.577Z,1.83
2022-09-02T21:26:25.693Z,1.70
2022-09-02T21:29:35.500Z,2.10
2022-09-02T21:32:17.475Z,2.00
2022-09-02T21:34:52.460Z,1.92
2022-09-02T21:37:20.874Z,2.00
2022-09-02T21:39:57.746Z,2.13
2022-09-02T21:43:13.600Z,2.10
2022-09-02T21:46:05.504Z,2.40
2022-09-02T21:48:53.636Z,1.80
2022-09-02T21:51:49.816Z,2.28
2022-09-02T21:57:22.453Z,2.07
2022-09-02T22:00:01.063Z,2.17
2022-09-02T22:02:38.941Z,2.13
2022-09-02T22:05:29.314Z,2.15
2022-09-02T22:08:43.294Z,2.40
2022-09-02T22:11:13.802Z,2.33
2022-09-02T22:13:41.852Z,2.30
2022-09-02T22:16:32.964Z,1.70
2022-09-02T22:19:02.441Z,2.25
2022-09-02T22:21:30.391Z,2.05
2022-09-02T22:23:57.331Z,2.15
2022-09-02T22:26:39.056Z,1.95
2022-09-02T22:29:19.931Z,1.90
2022-09-02T22:31:49.089Z,2.00
2022-09-02T22:34:18.509Z,1.70
2022-09-02T22:36:56.445Z,1.80
2022-09-02T22:39:43.594Z,2.20
2022-09-02T22:42:21.349Z,1.90
2022-09-02T22:45:32.269Z,3.08
2022-09-02T22:48:24.092Z,2.17
2022-09-02T22:51:18.877Z,2.00
2022-09-02T22:53:47.529Z,2.00
2022-09-02T22:56:24.935Z,2.08
2022-09-02T22:58:59.038Z,2.20
2022-09-02T23:01:54.871Z,2.42
2022-09-02T23:04:43.352Z,1.95
2022-09-02T23:07:13.352Z,1.95
2022-09-02T23:09:40.325Z,1.80
2022-09-02T23:12:37.365Z,2.17
2022-09-02T23:15:11.535Z,2.25
2022-09-02T23:18:08.587Z,2.40
2022-09-02T23:21:02.358Z,2.53
2022-09-02T23:24:20.973Z,2.40
2022-09-02T23:27:07.261Z,2.50
2022-09-02T23:29:35.557Z,3.08
2022-09-02T23:32:25.985Z,2.97
2022-09-02T23:35:11.360Z,3.72
2022-09-02T23:37:53.188Z,3.60
2022-09-02T23:40:47.306Z,2.95
2022-09-02T23:43:16.548Z,3.50
2022-09-02T23:45:43.666Z,3.67
2022-09-02T23:48:19.385Z,3.08
2022-09-02T23:50:48.972Z,3.15
2022-09-02T23:53:23.747Z,2.88
2022-09-02T23:56:07.395Z,3.78
2022-09-02T23:58:47.888Z,2.85
